»·PEaware :: N3861Q KPSP-KSAN

N3861Q :: KPSP-KSAN

FLIGHT INFORMATION

Flight Status: Arrived
Operator: Privately registered:
United States
More flights under this callsign
Pilot: Rod M. (882)
Aircraft: PIPER PA-31/31P NAVAJO CHIEFTAIN
(PA31)
More flights by this aircraft type
Origin: KPSP Palm Springs Intl
United States
Destination: KSAN San Diego Intl-Lindbergh
United States
More flights between these airports :: More routes between these airports
Route: +CATH1 PSP TRM V514 RYAHH
File this flight plan on PilotEdge
Remarks:
Altitude:
(Current/Filed)
10,000ft
Speed:
(Current/Filed)
180kts
Departed: 28-Sep-17 04:40 PM
Arrived: 28-Sep-17 05:22 PM
Distance/Time
Traveled:
74nm/0:41
Distance/Time
To Go:
Arrived

Flight Plot

Page will automatically refresh every two minutes.

Flight plan parsing failed; only flown route is shown


Map Options




Map Legend


Flown Route
Filed Route
Departure Airport
Arrival Airport
Navaid (VOR, NDB)
Fix

Horizontal Profiles

Position Reports

Time Latitude Longitude Heading Altitude Ground
Speed
28-Sep-17 16:19 33.826641 -116.509359 269 481ft 0kts
28-Sep-17 16:20 33.826641 -116.509359 269 481ft 0kts
28-Sep-17 16:21 33.826641 -116.509359 269 481ft 0kts
28-Sep-17 16:22 33.826641 -116.509359 269 481ft 0kts
28-Sep-17 16:23 33.826641 -116.509359 269 481ft 0kts
28-Sep-17 16:24 33.826641 -116.509359 269 481ft 0kts
28-Sep-17 16:25 33.826641 -116.509359 269 481ft 0kts
28-Sep-17 16:26 33.826641 -116.509359 269 481ft 0kts
28-Sep-17 16:27 33.826641 -116.509359 269 481ft 0kts
28-Sep-17 16:28 33.826641 -116.509359 269 481ft 0kts
28-Sep-17 16:29 33.826641 -116.509359 269 481ft 0kts
28-Sep-17 16:30 33.826641 -116.509359 269 481ft 0kts
28-Sep-17 16:31 33.826641 -116.509359 269 481ft 0kts
28-Sep-17 16:32 33.826641 -116.509359 269 481ft 0kts
28-Sep-17 16:33 33.826641 -116.509359 269 481ft 0kts
28-Sep-17 16:34 33.826641 -116.509359 269 481ft 0kts
28-Sep-17 16:35 33.826641 -116.509359 269 481ft 0kts
28-Sep-17 16:36 33.826641 -116.509359 269 481ft 0kts
28-Sep-17 16:37 33.826641 -116.509359 269 481ft 0kts
28-Sep-17 16:38 33.826641 -116.509359 269 481ft 0kts
28-Sep-17 16:39 33.825899 -116.507399 74 481ft 13kts
28-Sep-17 16:40 33.823022 -116.503775 144 481ft 19kts
28-Sep-17 16:41 33.818746 -116.499965 142 481ft 17kts
28-Sep-17 16:42 33.818174 -116.498916 39 481ft 0kts
28-Sep-17 16:43 33.818174 -116.498916 39 481ft 0kts
28-Sep-17 16:44 33.821692 -116.500533 322 481ft 81kts
28-Sep-17 16:45 33.850145 -116.526684 317 1456ft 138kts
28-Sep-17 16:46 33.880006 -116.558347 318 2652ft 145kts
28-Sep-17 16:47 33.913302 -116.554285 70 3875ft 149kts
28-Sep-17 16:48 33.897926 -116.508629 117 5014ft 155kts
28-Sep-17 16:49 33.880333 -116.460579 109 6145ft 157kts
28-Sep-17 16:50 33.857811 -116.415614 137 7218ft 162kts
28-Sep-17 16:51 33.822460 -116.381011 137 8288ft 165kts
28-Sep-17 16:52 33.788226 -116.342530 134 9299ft 169kts
28-Sep-17 16:53 33.752371 -116.303003 137 9931ft 192kts
28-Sep-17 16:54 33.712121 -116.259775 136 10024ft 196kts
28-Sep-17 16:55 33.671480 -116.215137 135 9996ft 199kts
28-Sep-17 16:56 33.632272 -116.169199 162 9961ft 199kts
28-Sep-17 16:57 33.583973 -116.199078 214 9975ft 201kts
28-Sep-17 16:58 33.538669 -116.238574 215 9975ft 201kts
28-Sep-17 16:59 33.493524 -116.278122 215 9975ft 201kts
28-Sep-17 17:00 33.448293 -116.317697 215 9975ft 201kts
28-Sep-17 17:01 33.403343 -116.356977 215 9975ft 201kts
28-Sep-17 17:02 33.358170 -116.396408 215 9975ft 201kts
28-Sep-17 17:03 33.313835 -116.434984 216 9986ft 201kts
28-Sep-17 17:04 33.268602 -116.474208 217 10007ft 201kts
28-Sep-17 17:05 33.223429 -116.513702 217 10015ft 201kts
28-Sep-17 17:06 33.178111 -116.553094 217 10038ft 202kts
28-Sep-17 17:07 33.130519 -116.586454 186 10059ft 202kts
28-Sep-17 17:08 33.074300 -116.592687 184 10054ft 203kts
28-Sep-17 17:09 33.018130 -116.598471 184 10054ft 203kts
28-Sep-17 17:10 32.961909 -116.604282 184 10054ft 203kts
28-Sep-17 17:11 32.905662 -116.610072 184 10047ft 203kts
28-Sep-17 17:12 32.858159 -116.643324 218 10037ft 203kts
28-Sep-17 17:13 32.814054 -116.684710 218 9437ft 197kts
28-Sep-17 17:14 32.770973 -116.724258 218 8414ft 196kts
28-Sep-17 17:15 32.728956 -116.764223 220 7410ft 191kts
28-Sep-17 17:16 32.688836 -116.804373 222 6441ft 188kts
28-Sep-17 17:17 32.650441 -116.845326 237 6018ft 178kts
28-Sep-17 17:18 32.653946 -116.897612 285 5142ft 160kts
28-Sep-17 17:19 32.663088 -116.942444 294 4965ft 125kts
28-Sep-17 17:20 32.678915 -116.980482 301 4349ft 132kts
28-Sep-17 17:21 32.691455 -117.020353 287 3951ft 126kts
28-Sep-17 17:22 32.700482 -117.059816 290 3208ft 127kts
28-Sep-17 17:23 32.711067 -117.098453 284 2609ft 120kts
28-Sep-17 17:24 32.720817 -117.136033 287 1452ft 118kts
28-Sep-17 17:25 32.729170 -117.171900 287 205ft 105kts
28-Sep-17 17:26 32.734013 -117.190834 334 21ft 15kts
28-Sep-17 17:27 32.734697 -117.190727 43 21ft 0kts
28-Sep-17 17:28 32.734707 -117.189542 100 21ft 15kts
28-Sep-17 17:29 32.733293 -117.183700 109 21ft 12kts
28-Sep-17 17:30 32.732586 -117.179552 31 21ft 9kts
28-Sep-17 17:31 32.733085 -117.178726 225 21ft 0kts

Navigation Log

Ident Type
Flight plan parsing failed, navigation log unavailable